createdAt,value
2023-03-29T00:00:40.935Z,7.30
2023-03-29T00:03:08.065Z,7.30
2023-03-29T00:05:38.227Z,7.40
2023-03-29T00:08:05.442Z,7.40
2023-03-29T00:10:33.623Z,7.40
2023-03-29T00:13:01.305Z,7.40
2023-03-29T00:15:28.573Z,7.40
2023-03-29T00:17:55.866Z,7.30
2023-03-29T00:20:23.260Z,7.40
2023-03-29T00:22:50.391Z,7.30
2023-03-29T00:25:17.590Z,7.40
2023-03-29T00:27:44.736Z,7.20
2023-03-29T00:30:15.964Z,7.10
2023-03-29T00:32:43.805Z,7.00
2023-03-29T00:35:11.065Z,6.90
2023-03-29T00:37:38.395Z,6.80
2023-03-29T00:40:12.480Z,6.80
2023-03-29T00:42:39.440Z,6.80
2023-03-29T00:45:25.595Z,6.70
2023-03-29T00:48:00.103Z,6.70
2023-03-29T00:50:38.159Z,6.80
2023-03-29T00:53:07.732Z,6.70
2023-03-29T00:55:43.496Z,6.70
2023-03-29T00:58:13.599Z,6.60
2023-03-29T01:00:57.983Z,6.50
2023-03-29T01:03:30.582Z,6.50
2023-03-29T01:06:02.598Z,6.50
2023-03-29T01:08:39.757Z,6.60
2023-03-29T01:11:11.457Z,6.50
2023-03-29T01:13:44.775Z,6.50
2023-03-29T01:16:14.341Z,6.60
2023-03-29T01:18:42.139Z,6.70
2023-03-29T01:21:19.511Z,6.70
2023-03-29T01:24:08.482Z,6.60
2023-03-29T01:27:00.967Z,6.50
2023-03-29T01:29:42.723Z,6.40
2023-03-29T01:32:22.483Z,6.40
2023-03-29T01:34:58.747Z,6.40
2023-03-29T01:37:32.472Z,6.60
2023-03-29T01:40:01.166Z,6.70
2023-03-29T01:42:59.377Z,6.60
2023-03-29T01:45:48.151Z,6.50
2023-03-29T01:48:45.487Z,6.50
2023-03-29T01:51:40.173Z,6.40
2023-03-29T01:54:18.498Z,6.50
2023-03-29T01:56:49.172Z,6.60
2023-03-29T01:59:22.744Z,6.60
2023-03-29T02:01:53.064Z,6.50
2023-03-29T02:04:27.749Z,6.50
2023-03-29T02:06:56.042Z,6.40
2023-03-29T02:09:23.921Z,6.50
2023-03-29T02:11:52.865Z,6.50
2023-03-29T02:14:21.308Z,6.40
2023-03-29T02:16:49.658Z,6.40
2023-03-29T02:19:18.714Z,6.40
2023-03-29T02:22:04.917Z,6.40
2023-03-29T02:24:34.318Z,6.40
2023-03-29T02:27:01.903Z,6.40
2023-03-29T02:29:29.510Z,6.50
2023-03-29T02:32:17.590Z,6.50
2023-03-29T02:34:54.695Z,6.60
2023-03-29T02:37:25.751Z,6.60
2023-03-29T02:39:53.941Z,6.70
2023-03-29T02:42:22.440Z,6.80
2023-03-29T02:44:52.932Z,6.70
2023-03-29T02:47:28.684Z,6.70
2023-03-29T02:49:55.999Z,6.70
2023-03-29T02:52:27.006Z,6.70
2023-03-29T02:54:56.058Z,6.80
2023-03-29T02:57:26.833Z,6.90
2023-03-29T02:59:57.096Z,6.90
2023-03-29T03:02:28.283Z,6.90
2023-03-29T03:04:55.914Z,6.90
2023-03-29T03:07:25.029Z,7.00
2023-03-29T03:09:52.860Z,7.10
2023-03-29T03:12:20.411Z,7.10
2023-03-29T03:14:48.307Z,7.10
2023-03-29T03:17:15.610Z,7.10
2023-03-29T03:19:43.422Z,7.20
2023-03-29T03:22:11.682Z,7.20
2023-03-29T03:24:39.027Z,7.20
2023-03-29T03:27:06.329Z,7.30
2023-03-29T03:29:33.581Z,7.40
2023-03-29T03:32:00.996Z,7.40
2023-03-29T03:34:28.798Z,7.50
2023-03-29T03:36:56.114Z,7.60
2023-03-29T03:39:23.371Z,7.70
2023-03-29T03:41:51.063Z,7.80
2023-03-29T03:44:18.388Z,7.90
2023-03-29T03:46:45.981Z,7.90
2023-03-29T03:49:13.787Z,7.90
2023-03-29T03:51:42.407Z,7.90
2023-03-29T03:54:09.387Z,7.80
2023-03-29T03:56:37.518Z,7.80
2023-03-29T03:59:05.646Z,7.70
2023-03-29T04:01:34.114Z,7.60
2023-03-29T04:04:01.787Z,7.60
2023-03-29T04:06:30.696Z,7.60
2023-03-29T04:08:58.078Z,7.60
2023-03-29T04:11:26.149Z,7.60
2023-03-29T04:13:53.618Z,7.70
2023-03-29T04:16:21.486Z,7.70
2023-03-29T04:18:49.083Z,7.80
2023-03-29T04:21:18.788Z,7.90
2023-03-29T04:23:48.630Z,7.80
2023-03-29T04:26:15.931Z,7.70
2023-03-29T04:28:43.799Z,7.60
2023-03-29T04:31:14.969Z,7.70
2023-03-29T04:33:42.672Z,7.60
2023-03-29T04:36:10.255Z,7.60
2023-03-29T04:38:37.922Z,7.60
2023-03-29T04:41:05.538Z,7.60
2023-03-29T04:43:32.863Z,7.60
2023-03-29T04:46:00.308Z,7.70
2023-03-29T04:48:28.566Z,7.70
2023-03-29T04:50:55.872Z,7.80
2023-03-29T04:53:23.358Z,7.80
2023-03-29T04:55:51.092Z,7.70
2023-03-29T04:58:21.592Z,7.60
2023-03-29T05:00:51.673Z,7.70
2023-03-29T05:03:18.914Z,7.70
2023-03-29T05:05:46.340Z,7.60
2023-03-29T05:08:14.013Z,7.70
2023-03-29T05:10:44.744Z,7.70
2023-03-29T05:13:11.901Z,7.50
2023-03-29T05:15:41.240Z,7.60
2023-03-29T05:18:08.601Z,7.60
2023-03-29T05:20:35.777Z,7.70
2023-03-29T05:23:02.968Z,7.70
2023-03-29T05:25:30.327Z,7.80
2023-03-29T05:27:58.288Z,7.90
2023-03-29T05:30:26.101Z,8.00
2023-03-29T05:32:54.068Z,8.00
2023-03-29T05:35:21.575Z,8.00
2023-03-29T05:37:49.759Z,8.00
2023-03-29T05:40:17.143Z,8.00
2023-03-29T05:42:44.327Z,8.10
2023-03-29T05:45:15.418Z,8.10
2023-03-29T05:47:42.976Z,8.10
2023-03-29T05:50:10.417Z,8.10
2023-03-29T05:52:38.720Z,8.20
2023-03-29T05:55:08.088Z,8.30
2023-03-29T05:57:38.258Z,8.40
2023-03-29T06:00:35.614Z,8.40
2023-03-29T06:03:13.715Z,8.50
2023-03-29T06:05:49.633Z,8.50
2023-03-29T06:08:17.376Z,8.50
2023-03-29T06:10:44.607Z,8.60
2023-03-29T06:13:11.967Z,8.80
2023-03-29T06:15:39.130Z,8.90
2023-03-29T06:18:06.621Z,9.00
2023-03-29T06:20:33.929Z,9.10
2023-03-29T06:23:01.136Z,9.20
2023-03-29T06:25:28.186Z,9.30
2023-03-29T06:27:55.574Z,9.20
2023-03-29T06:30:23.015Z,9.20
2023-03-29T06:32:50.820Z,9.30
2023-03-29T06:35:18.462Z,9.40
2023-03-29T06:37:50.037Z,9.40
2023-03-29T06:40:19.224Z,9.50
2023-03-29T06:42:47.209Z,9.50
2023-03-29T06:45:19.655Z,9.40
2023-03-29T06:47:47.817Z,9.40
2023-03-29T06:50:14.969Z,9.50
2023-03-29T06:52:42.354Z,9.40
2023-03-29T06:55:11.820Z,9.40
2023-03-29T06:57:40.004Z,9.60
2023-03-29T07:00:30.939Z,9.50
2023-03-29T07:03:00.826Z,9.50
2023-03-29T07:05:28.570Z,9.60
2023-03-29T07:08:13.806Z,9.60
2023-03-29T07:10:47.608Z,9.70
2023-03-29T07:13:15.762Z,9.80
2023-03-29T07:15:43.926Z,9.80
2023-03-29T07:18:12.737Z,9.90
2023-03-29T07:20:40.601Z,10.00
2023-03-29T07:23:09.567Z,10.10
2023-03-29T07:25:38.287Z,10.10
2023-03-29T07:28:06.275Z,10.20
2023-03-29T07:30:33.811Z,10.40
2023-03-29T07:33:01.214Z,10.40
2023-03-29T07:35:30.848Z,10.50
2023-03-29T07:37:58.472Z,10.70
2023-03-29T07:40:26.425Z,10.90
2023-03-29T07:42:56.628Z,11.00
2023-03-29T07:45:28.169Z,11.10
2023-03-29T07:47:59.797Z,11.10
2023-03-29T07:50:27.948Z,11.20
2023-03-29T07:52:56.941Z,11.20
2023-03-29T07:55:24.145Z,11.20
2023-03-29T07:57:51.332Z,11.20
2023-03-29T08:00:20.059Z,11.20
2023-03-29T08:02:52.911Z,11.20
2023-03-29T08:05:37.863Z,11.20
2023-03-29T08:08:09.803Z,11.30
2023-03-29T08:10:39.409Z,11.40
2023-03-29T08:13:09.318Z,11.40
2023-03-29T08:15:42.199Z,11.40
2023-03-29T08:18:09.583Z,11.40
2023-03-29T08:20:37.185Z,11.50
2023-03-29T08:23:04.383Z,11.50
2023-03-29T08:25:31.503Z,11.50
2023-03-29T08:27:58.727Z,11.60
2023-03-29T08:30:26.423Z,11.60
2023-03-29T08:32:55.377Z,11.60
2023-03-29T08:35:23.332Z,11.60
2023-03-29T08:37:51.472Z,11.70
2023-03-29T08:40:22.140Z,11.70
2023-03-29T08:43:13.826Z,11.70
2023-03-29T08:46:35.428Z,11.80
2023-03-29T08:49:08.054Z,12.00
2023-03-29T08:51:39.449Z,12.10
2023-03-29T08:54:15.804Z,12.00
2023-03-29T08:56:46.757Z,12.00
2023-03-29T08:59:23.196Z,12.00
2023-03-29T09:01:54.646Z,12.10
2023-03-29T09:04:28.726Z,12.10
2023-03-29T09:06:56.804Z,12.10
2023-03-29T09:09:32.031Z,12.20
2023-03-29T09:12:10.576Z,12.30
2023-03-29T09:14:49.135Z,12.30
2023-03-29T09:17:28.334Z,12.50
2023-03-29T09:20:23.609Z,12.40
2023-03-29T09:23:09.055Z,12.50
2023-03-29T09:25:54.018Z,12.60
2023-03-29T09:28:43.936Z,12.70
2023-03-29T09:31:18.853Z,13.00
2023-03-29T09:33:59.342Z,13.20
2023-03-29T09:36:32.097Z,13.20
2023-03-29T09:38:59.764Z,13.30
2023-03-29T09:41:38.626Z,13.40
2023-03-29T09:44:28.177Z,13.60
2023-03-29T09:47:12.624Z,13.80
2023-03-29T09:49:47.193Z,14.10
2023-03-29T09:52:17.110Z,14.30
2023-03-29T09:54:44.460Z,14.50
2023-03-29T09:57:17.482Z,14.30
2023-03-29T09:59:50.819Z,14.10
2023-03-29T10:02:21.201Z,14.20
2023-03-29T10:04:55.777Z,14.20
2023-03-29T10:07:23.656Z,14.50
2023-03-29T10:09:55.305Z,14.90
2023-03-29T10:12:23.412Z,15.20
2023-03-29T10:14:53.999Z,15.60
2023-03-29T10:17:29.616Z,16.00
2023-03-29T10:20:01.480Z,16.10
2023-03-29T10:22:37.682Z,16.40
2023-03-29T10:25:12.709Z,16.70
2023-03-29T10:27:42.412Z,16.90
2023-03-29T10:30:15.176Z,17.10
2023-03-29T10:32:43.209Z,17.20
2023-03-29T10:35:24.140Z,17.50
2023-03-29T10:37:55.268Z,17.30
2023-03-29T10:40:40.448Z,17.40
2023-03-29T10:43:27.134Z,17.50
2023-03-29T10:45:56.217Z,17.40
2023-03-29T10:48:31.574Z,17.10
2023-03-29T10:51:01.512Z,17.20
2023-03-29T10:53:32.775Z,17.50
2023-03-29T10:56:24.493Z,17.70
2023-03-29T10:59:07.400Z,17.80
2023-03-29T11:02:00.524Z,17.90
2023-03-29T11:04:56.882Z,18.00
2023-03-29T11:07:38.810Z,18.00
2023-03-29T11:10:16.482Z,18.00
2023-03-29T11:13:08.574Z,17.70
2023-03-29T11:16:12.320Z,17.60
2023-03-29T11:18:39.682Z,17.50
2023-03-29T11:21:26.594Z,17.30
2023-03-29T11:24:15.994Z,17.30
2023-03-29T11:27:04.773Z,17.20
2023-03-29T11:29:44.702Z,17.00
2023-03-29T11:32:11.973Z,16.90
2023-03-29T11:34:57.448Z,17.00
2023-03-29T11:37:35.765Z,17.00
2023-03-29T11:40:32.867Z,16.90
2023-03-29T11:43:02.949Z,16.90
2023-03-29T11:45:35.543Z,16.90
2023-03-29T11:48:07.685Z,16.90
2023-03-29T11:50:51.720Z,16.80
2023-03-29T11:53:46.314Z,16.70
2023-03-29T11:56:19.487Z,16.60
2023-03-29T11:58:52.261Z,16.60
2023-03-29T12:01:30.572Z,16.70
2023-03-29T12:04:02.614Z,16.70
2023-03-29T12:06:39.308Z,16.90
2023-03-29T12:09:23.812Z,16.90
2023-03-29T12:12:21.575Z,16.90
2023-03-29T12:14:57.134Z,16.90
2023-03-29T12:17:32.345Z,16.70
2023-03-29T12:20:19.550Z,16.50
2023-03-29T12:22:49.062Z,16.50
2023-03-29T12:25:23.784Z,16.40
2023-03-29T12:28:23.444Z,16.40
2023-03-29T12:31:08.572Z,16.50
2023-03-29T12:33:59.249Z,16.60
2023-03-29T12:37:03.607Z,16.70
2023-03-29T12:39:32.896Z,16.60
2023-03-29T12:42:19.337Z,16.60
2023-03-29T12:44:57.416Z,16.40
2023-03-29T12:47:27.883Z,16.20
2023-03-29T12:49:58.279Z,16.20
2023-03-29T12:52:33.785Z,16.30
2023-03-29T12:55:23.198Z,16.50
2023-03-29T12:58:02.727Z,16.60
2023-03-29T13:00:42.193Z,16.70
2023-03-29T13:03:29.581Z,16.80
2023-03-29T13:06:02.709Z,16.90
2023-03-29T13:08:42.236Z,16.90
2023-03-29T13:11:32.252Z,17.00
2023-03-29T13:14:03.196Z,16.90
2023-03-29T13:16:34.877Z,16.80
2023-03-29T13:19:31.634Z,16.90
2023-03-29T13:22:10.688Z,17.00
2023-03-29T13:25:06.340Z,17.10
2023-03-29T13:27:50.858Z,17.10
2023-03-29T13:30:24.428Z,17.10
2023-03-29T13:32:54.759Z,17.10
2023-03-29T13:35:42.500Z,17.20
2023-03-29T13:38:28.801Z,17.20
2023-03-29T13:41:04.852Z,17.30
2023-03-29T13:43:36.146Z,17.20
2023-03-29T13:46:06.871Z,17.20
2023-03-29T13:48:37.666Z,17.20
2023-03-29T13:51:33.192Z,17.20
2023-03-29T13:54:13.073Z,17.20
2023-03-29T13:57:07.976Z,17.10
2023-03-29T13:59:46.143Z,17.10
2023-03-29T14:02:25.510Z,17.10
2023-03-29T14:04:53.512Z,17.10
2023-03-29T14:07:26.241Z,17.10
2023-03-29T14:09:55.601Z,17.10
2023-03-29T14:12:23.485Z,17.10
2023-03-29T14:14:58.834Z,17.00
2023-03-29T14:17:27.115Z,17.00
2023-03-29T14:19:58.506Z,17.10
2023-03-29T14:22:31.192Z,17.10
2023-03-29T14:25:02.494Z,17.00
2023-03-29T14:27:32.157Z,16.90
2023-03-29T14:29:59.833Z,16.90
2023-03-29T14:32:31.560Z,17.00
2023-03-29T14:35:01.239Z,17.00
2023-03-29T14:37:30.207Z,17.00
2023-03-29T14:39:59.193Z,17.00
2023-03-29T14:42:29.132Z,17.10
2023-03-29T14:45:04.275Z,17.20
2023-03-29T14:47:33.023Z,17.20
2023-03-29T14:50:01.841Z,17.30
2023-03-29T14:52:31.141Z,17.40
2023-03-29T14:55:02.374Z,17.50
2023-03-29T14:57:35.681Z,17.60
2023-03-29T15:00:17.355Z,17.50
2023-03-29T15:03:01.180Z,17.70
2023-03-29T15:05:39.262Z,17.90
2023-03-29T15:08:10.463Z,18.00
2023-03-29T15:10:39.531Z,18.20
2023-03-29T15:13:08.261Z,18.50
2023-03-29T15:15:38.392Z,18.60
2023-03-29T15:18:07.606Z,18.80
2023-03-29T15:20:38.986Z,19.00
2023-03-29T15:23:14.895Z,19.30
2023-03-29T15:25:59.306Z,19.40
2023-03-29T15:28:31.270Z,19.30
2023-03-29T15:31:08.117Z,19.30
2023-03-29T15:33:37.929Z,19.30
2023-03-29T15:36:06.909Z,19.30
2023-03-29T15:38:44.177Z,19.30
2023-03-29T15:41:14.322Z,19.30
2023-03-29T15:43:42.103Z,19.20
2023-03-29T15:46:11.989Z,19.30
2023-03-29T15:48:39.073Z,19.30
2023-03-29T15:51:06.929Z,19.30
2023-03-29T15:53:35.501Z,19.30
2023-03-29T15:56:05.433Z,19.10
2023-03-29T15:58:34.481Z,18.80
2023-03-29T16:01:19.076Z,18.50
2023-03-29T16:03:47.853Z,18.40
2023-03-29T16:06:17.651Z,18.30
2023-03-29T16:08:46.157Z,18.40
2023-03-29T16:11:13.485Z,18.30
2023-03-29T16:13:40.498Z,18.30
2023-03-29T16:16:09.586Z,18.10
2023-03-29T16:18:36.725Z,17.90
2023-03-29T16:21:04.766Z,17.70
2023-03-29T16:23:31.990Z,17.50
2023-03-29T16:25:59.520Z,17.30
2023-03-29T16:28:26.535Z,17.10
2023-03-29T16:30:53.665Z,17.00
2023-03-29T16:33:21.100Z,16.80
2023-03-29T16:35:48.334Z,16.80
2023-03-29T16:38:15.573Z,16.80
2023-03-29T16:40:43.940Z,16.70
2023-03-29T16:43:18.695Z,16.50
2023-03-29T16:45:46.087Z,16.50
2023-03-29T16:48:18.555Z,16.50
2023-03-29T16:50:49.664Z,16.40
2023-03-29T16:53:21.601Z,16.30
2023-03-29T16:55:48.942Z,16.30
2023-03-29T16:58:16.302Z,16.20
2023-03-29T17:00:47.245Z,16.00
2023-03-29T17:03:16.323Z,16.00
2023-03-29T17:05:51.972Z,15.90
2023-03-29T17:08:20.721Z,15.90
2023-03-29T17:10:53.232Z,16.00
2023-03-29T17:13:23.804Z,16.00
2023-03-29T17:15:52.637Z,16.00
2023-03-29T17:18:21.178Z,16.00
2023-03-29T17:20:50.670Z,15.90
2023-03-29T17:23:17.777Z,15.90
2023-03-29T17:25:44.730Z,15.90
2023-03-29T17:28:12.172Z,15.80
2023-03-29T17:30:39.428Z,15.70
2023-03-29T17:33:08.027Z,15.70
2023-03-29T17:35:35.700Z,15.90
2023-03-29T17:38:02.960Z,15.80
2023-03-29T17:40:30.606Z,15.70
2023-03-29T17:42:57.653Z,15.70
2023-03-29T17:45:24.734Z,15.60
2023-03-29T17:47:51.895Z,15.50
2023-03-29T17:50:18.935Z,15.40
2023-03-29T17:52:46.089Z,15.30
2023-03-29T17:55:16.385Z,15.30
2023-03-29T17:57:43.955Z,15.30
2023-03-29T18:00:15.948Z,15.30
2023-03-29T18:02:43.480Z,15.20
2023-03-29T18:05:11.402Z,15.20
2023-03-29T18:07:38.796Z,15.10
2023-03-29T18:10:07.978Z,15.00
2023-03-29T18:12:35.354Z,15.00
2023-03-29T18:15:02.814Z,15.00
2023-03-29T18:17:29.873Z,14.80
2023-03-29T18:19:56.889Z,14.70
2023-03-29T18:22:24.213Z,14.70
2023-03-29T18:24:51.639Z,14.70
2023-03-29T18:27:18.838Z,14.70
2023-03-29T18:29:45.998Z,14.70
2023-03-29T18:32:13.934Z,14.80
2023-03-29T18:34:41.235Z,14.80
2023-03-29T18:37:14.548Z,14.90
2023-03-29T18:39:41.798Z,14.90
2023-03-29T18:42:11.639Z,14.80
2023-03-29T18:44:40.491Z,14.90
2023-03-29T18:47:07.639Z,15.00
2023-03-29T18:49:34.678Z,15.00
2023-03-29T18:52:02.075Z,15.10
2023-03-29T18:54:29.141Z,15.10
2023-03-29T18:56:58.702Z,15.20
2023-03-29T18:59:26.499Z,15.20
2023-03-29T19:01:53.688Z,15.20
2023-03-29T19:04:21.023Z,15.10
2023-03-29T19:06:49.370Z,15.10
2023-03-29T19:09:16.699Z,15.10
2023-03-29T19:11:43.785Z,15.10
2023-03-29T19:14:10.968Z,15.10
2023-03-29T19:16:39.754Z,15.10
2023-03-29T19:19:08.310Z,15.10
2023-03-29T19:21:35.315Z,15.00
2023-03-29T19:24:05.054Z,15.00
2023-03-29T19:26:33.457Z,14.90
2023-03-29T19:29:01.122Z,14.80
2023-03-29T19:31:28.632Z,14.80
2023-03-29T19:33:55.873Z,14.70
2023-03-29T19:36:22.992Z,14.60
2023-03-29T19:38:50.138Z,14.60
2023-03-29T19:41:17.850Z,14.50
2023-03-29T19:43:44.880Z,14.50
2023-03-29T19:46:13.317Z,14.60
2023-03-29T19:48:40.587Z,14.70
2023-03-29T19:51:08.026Z,14.80
2023-03-29T19:53:38.395Z,15.00
2023-03-29T19:56:07.607Z,15.10
2023-03-29T19:58:34.760Z,15.10
2023-03-29T20:01:01.900Z,15.20
2023-03-29T20:03:29.831Z,15.30
2023-03-29T20:05:57.469Z,15.30
2023-03-29T20:08:25.428Z,15.30
2023-03-29T20:11:10.143Z,15.30
2023-03-29T20:13:41.269Z,15.40
2023-03-29T20:16:10.877Z,15.40
2023-03-29T20:18:38.356Z,15.40
2023-03-29T20:21:07.258Z,15.30
2023-03-29T20:23:34.770Z,15.30
2023-03-29T20:26:01.769Z,15.40
2023-03-29T20:28:29.392Z,15.40
2023-03-29T20:30:56.508Z,15.40
2023-03-29T20:33:23.599Z,15.40
2023-03-29T20:35:50.958Z,15.40
2023-03-29T20:38:18.105Z,15.40
2023-03-29T20:40:45.328Z,15.40
2023-03-29T20:43:18.333Z,15.30
2023-03-29T20:45:53.589Z,15.40
2023-03-29T20:48:31.145Z,15.40
2023-03-29T20:50:58.283Z,15.40
2023-03-29T20:53:30.156Z,15.40
2023-03-29T20:55:57.233Z,15.40
2023-03-29T20:58:27.230Z,15.40
2023-03-29T21:00:54.232Z,15.40
2023-03-29T21:03:21.618Z,15.40
2023-03-29T21:05:54.448Z,15.40
2023-03-29T21:08:21.544Z,15.60
2023-03-29T21:10:48.770Z,15.50
2023-03-29T21:13:15.814Z,15.60
2023-03-29T21:15:43.742Z,15.70
2023-03-29T21:18:11.274Z,15.80
2023-03-29T21:20:38.720Z,15.80
2023-03-29T21:23:06.007Z,15.90
2023-03-29T21:25:33.204Z,15.90
2023-03-29T21:28:00.593Z,15.90
2023-03-29T21:30:30.672Z,15.90
2023-03-29T21:32:59.186Z,15.90
2023-03-29T21:35:26.418Z,15.90
2023-03-29T21:37:53.381Z,15.80
2023-03-29T21:40:20.815Z,15.90
2023-03-29T21:42:47.886Z,15.90
2023-03-29T21:45:15.543Z,15.90
2023-03-29T21:47:42.550Z,15.90
2023-03-29T21:50:10.747Z,15.90
2023-03-29T21:52:38.201Z,15.80
2023-03-29T21:55:08.433Z,15.70
2023-03-29T21:57:35.550Z,15.70
2023-03-29T22:00:05.124Z,15.70
2023-03-29T22:02:32.259Z,15.70
2023-03-29T22:05:00.131Z,15.60
2023-03-29T22:07:27.316Z,15.60
2023-03-29T22:09:54.770Z,15.60
2023-03-29T22:12:22.799Z,15.60
2023-03-29T22:14:49.866Z,15.60
2023-03-29T22:17:16.788Z,15.80
2023-03-29T22:19:44.001Z,15.80
2023-03-29T22:22:14.103Z,15.80
2023-03-29T22:24:42.364Z,15.90
2023-03-29T22:27:10.570Z,15.90
2023-03-29T22:29:37.553Z,15.90
2023-03-29T22:32:05.150Z,15.90
2023-03-29T22:34:32.582Z,15.90
2023-03-29T22:36:59.555Z,15.90
2023-03-29T22:39:26.906Z,15.90
2023-03-29T22:41:53.925Z,15.90
2023-03-29T22:44:21.012Z,15.90
2023-03-29T22:46:48.111Z,16.00
2023-03-29T22:49:15.307Z,15.90
2023-03-29T22:51:42.466Z,15.90
2023-03-29T22:54:09.580Z,16.00
2023-03-29T22:56:36.735Z,16.00
2023-03-29T22:59:04.097Z,15.90
2023-03-29T23:01:31.182Z,15.90
2023-03-29T23:03:58.350Z,15.80
2023-03-29T23:06:26.000Z,15.70
2023-03-29T23:08:53.115Z,15.60
2023-03-29T23:11:20.091Z,15.50
2023-03-29T23:13:48.969Z,15.50
2023-03-29T23:16:16.200Z,15.50
2023-03-29T23:18:43.378Z,15.40
2023-03-29T23:21:10.721Z,15.40
2023-03-29T23:23:38.314Z,15.40
2023-03-29T23:26:06.549Z,15.30
2023-03-29T23:28:34.763Z,15.20
2023-03-29T23:31:05.089Z,15.20
2023-03-29T23:33:35.517Z,15.20
2023-03-29T23:36:05.576Z,15.10
2023-03-29T23:38:34.397Z,15.00
2023-03-29T23:41:03.777Z,15.10
2023-03-29T23:43:33.673Z,15.00
2023-03-29T23:46:03.955Z,15.00
2023-03-29T23:48:32.242Z,15.00
2023-03-29T23:50:59.694Z,14.90
2023-03-29T23:53:28.856Z,14.90
2023-03-29T23:56:05.028Z,14.90
2023-03-29T23:58:34.656Z,14.90
